createdAt,value
2022-10-22T00:00:16.683Z,12.01
2022-10-22T00:03:03.656Z,11.98
2022-10-22T00:05:30.653Z,11.95
2022-10-22T00:07:57.435Z,11.93
2022-10-22T00:10:24.474Z,11.89
2022-10-22T00:12:51.249Z,11.87
2022-10-22T00:15:18.314Z,11.85
2022-10-22T00:17:45.209Z,11.83
2022-10-22T00:20:12.209Z,11.83
2022-10-22T00:22:39.062Z,11.84
2022-10-22T00:25:06.419Z,11.80
2022-10-22T00:27:33.197Z,11.77
2022-10-22T00:30:00.221Z,11.75
2022-10-22T00:32:27.090Z,11.71
2022-10-22T00:34:54.086Z,11.70
2022-10-22T00:37:20.973Z,11.69
2022-10-22T00:39:48.471Z,11.67
2022-10-22T00:42:20.777Z,11.64
2022-10-22T00:45:25.547Z,11.63
2022-10-22T00:47:57.857Z,11.63
2022-10-22T00:50:39.920Z,11.66
2022-10-22T00:53:13.224Z,11.63
2022-10-22T00:55:43.793Z,11.62
2022-10-22T00:58:12.666Z,11.62
2022-10-22T01:00:40.033Z,11.64
2022-10-22T01:03:07.157Z,11.65
2022-10-22T01:05:51.654Z,11.64
2022-10-22T01:08:56.021Z,11.66
2022-10-22T01:11:53.518Z,11.65
2022-10-22T01:14:41.147Z,11.64
2022-10-22T01:17:40.311Z,11.64
2022-10-22T01:20:56.943Z,11.63
2022-10-22T01:24:17.061Z,11.60
2022-10-22T01:27:31.779Z,11.59
2022-10-22T01:30:08.447Z,11.57
2022-10-22T01:32:51.298Z,11.48
2022-10-22T01:35:27.972Z,11.47
2022-10-22T01:38:01.494Z,11.49
2022-10-22T01:40:30.365Z,11.47
2022-10-22T01:43:05.711Z,11.49
2022-10-22T01:45:47.226Z,11.48
2022-10-22T01:48:32.882Z,11.48
2022-10-22T01:51:21.491Z,11.49
2022-10-22T01:53:59.030Z,11.50
2022-10-22T01:56:53.956Z,11.49
2022-10-22T01:59:42.247Z,11.45
2022-10-22T02:05:26.666Z,11.40
2022-10-22T02:08:06.337Z,11.41
2022-10-22T02:10:37.433Z,11.45
2022-10-22T02:13:13.276Z,11.43
2022-10-22T02:15:44.795Z,11.40
2022-10-22T02:18:14.315Z,11.34
2022-10-22T02:20:42.630Z,11.32
2022-10-22T02:23:11.211Z,11.30
2022-10-22T02:25:48.709Z,11.22
2022-10-22T02:28:58.643Z,11.17
2022-10-22T02:31:33.131Z,11.09
2022-10-22T02:34:10.168Z,11.06
2022-10-22T02:36:40.839Z,11.06
2022-10-22T02:39:10.870Z,10.99
2022-10-22T02:41:38.218Z,10.97
2022-10-22T02:44:10.945Z,10.96
2022-10-22T02:46:40.102Z,10.96
2022-10-22T02:49:07.313Z,10.93
2022-10-22T02:51:34.216Z,10.93
2022-10-22T02:54:01.294Z,10.96
2022-10-22T02:56:28.899Z,10.99
2022-10-22T02:58:55.888Z,10.97
2022-10-22T03:01:22.815Z,10.97
2022-10-22T03:03:50.022Z,10.96
2022-10-22T03:06:17.375Z,10.98
2022-10-22T03:08:44.493Z,10.99
2022-10-22T03:11:11.419Z,10.98
2022-10-22T03:13:38.442Z,10.98
2022-10-22T03:16:05.926Z,10.97
2022-10-22T03:18:33.010Z,10.97
2022-10-22T03:21:10.031Z,10.99
2022-10-22T03:23:40.414Z,10.99
2022-10-22T03:26:08.416Z,11.02
2022-10-22T03:28:38.213Z,11.02
2022-10-22T03:31:05.250Z,11.02
2022-10-22T03:33:32.303Z,11.00
2022-10-22T03:36:00.576Z,11.01
2022-10-22T03:38:28.845Z,10.99
2022-10-22T03:40:55.818Z,10.94
2022-10-22T03:43:22.890Z,10.96
2022-10-22T03:45:49.657Z,10.96
2022-10-22T03:48:16.603Z,10.99
2022-10-22T03:50:43.394Z,11.01
2022-10-22T03:53:10.714Z,11.02
2022-10-22T03:55:40.683Z,11.01
2022-10-22T03:58:07.721Z,11.02
2022-10-22T04:00:35.949Z,11.01
2022-10-22T04:03:03.310Z,11.07
2022-10-22T04:05:30.193Z,11.08
2022-10-22T04:07:57.204Z,11.04
2022-10-22T04:10:24.006Z,11.04
2022-10-22T04:12:51.496Z,11.02
2022-10-22T04:15:18.321Z,11.02
2022-10-22T04:17:45.274Z,11.07
2022-10-22T04:20:12.058Z,11.12
2022-10-22T04:22:39.141Z,11.10
2022-10-22T04:25:06.323Z,11.06
2022-10-22T04:27:35.685Z,11.05
2022-10-22T04:30:05.052Z,11.02
2022-10-22T04:32:32.217Z,11.04
2022-10-22T04:34:58.977Z,11.07
2022-10-22T04:37:25.976Z,11.10
2022-10-22T04:39:52.807Z,11.10
2022-10-22T04:42:19.807Z,11.16
2022-10-22T04:44:46.641Z,11.19
2022-10-22T04:47:13.690Z,11.19
2022-10-22T04:49:40.752Z,11.15
2022-10-22T04:52:07.870Z,11.09
2022-10-22T04:54:34.735Z,11.06
2022-10-22T04:57:01.942Z,11.04
2022-10-22T04:59:28.830Z,11.01
2022-10-22T05:01:55.961Z,11.03
2022-10-22T05:04:22.892Z,11.05
2022-10-22T05:06:49.946Z,11.07
2022-10-22T05:09:20.146Z,11.08
2022-10-22T05:11:51.019Z,11.10
2022-10-22T05:14:24.787Z,11.12
2022-10-22T05:16:52.767Z,11.10
2022-10-22T05:19:27.454Z,11.10
2022-10-22T05:21:57.576Z,11.12
2022-10-22T05:24:26.332Z,11.11
2022-10-22T05:26:56.100Z,11.11
2022-10-22T05:29:23.821Z,11.08
2022-10-22T05:31:51.039Z,11.15
2022-10-22T05:34:18.247Z,11.18
2022-10-22T05:36:46.193Z,11.18
2022-10-22T05:39:13.408Z,11.16
2022-10-22T05:41:40.629Z,11.16
2022-10-22T05:44:07.639Z,11.18
2022-10-22T05:46:36.501Z,11.19
2022-10-22T05:49:06.796Z,11.19
2022-10-22T05:51:37.155Z,11.18
2022-10-22T05:54:08.210Z,11.18
2022-10-22T05:56:37.381Z,11.19
2022-10-22T05:59:04.829Z,11.16
2022-10-22T06:01:35.411Z,11.17
2022-10-22T06:04:06.775Z,11.17
2022-10-22T06:06:36.955Z,11.19
2022-10-22T06:09:20.171Z,11.17
2022-10-22T06:11:48.234Z,11.19
2022-10-22T06:14:16.132Z,11.20
2022-10-22T06:16:43.716Z,11.22
2022-10-22T06:19:17.516Z,11.21
2022-10-22T06:21:45.671Z,11.23
2022-10-22T06:24:13.225Z,11.22
2022-10-22T06:26:41.299Z,11.22
2022-10-22T06:29:08.715Z,11.26
2022-10-22T06:31:39.076Z,11.26
2022-10-22T06:34:11.020Z,11.25
2022-10-22T06:39:06.891Z,11.29
2022-10-22T06:41:34.163Z,11.27
2022-10-22T06:44:01.072Z,11.31
2022-10-22T06:46:28.514Z,11.32
2022-10-22T06:49:02.534Z,11.32
2022-10-22T06:51:30.019Z,11.32
2022-10-22T06:53:58.180Z,11.35
2022-10-22T06:56:29.307Z,11.36
2022-10-22T06:58:58.331Z,11.37
2022-10-22T07:01:33.152Z,11.34
2022-10-22T07:04:01.618Z,11.36
2022-10-22T07:06:30.528Z,11.42
2022-10-22T07:09:00.067Z,11.43
2022-10-22T07:11:32.737Z,11.46
2022-10-22T07:14:00.420Z,11.50
2022-10-22T07:16:31.192Z,11.51
2022-10-22T07:19:00.818Z,11.55
2022-10-22T07:21:29.120Z,11.57
2022-10-22T07:23:56.933Z,11.57
2022-10-22T07:26:25.448Z,11.55
2022-10-22T07:28:53.106Z,11.55
2022-10-22T07:31:21.161Z,11.54
2022-10-22T07:33:48.306Z,11.55
2022-10-22T07:36:20.425Z,11.55
2022-10-22T07:38:54.330Z,11.53
2022-10-22T07:41:21.696Z,11.54
2022-10-22T07:43:48.571Z,11.57
2022-10-22T07:46:15.976Z,11.60
2022-10-22T07:48:42.918Z,11.60
2022-10-22T07:51:10.238Z,11.65
2022-10-22T07:53:37.625Z,11.67
2022-10-22T07:56:05.716Z,11.70
2022-10-22T07:58:32.713Z,11.73
2022-10-22T08:01:03.098Z,11.75
2022-10-22T08:03:30.100Z,11.75
2022-10-22T08:05:57.364Z,11.75
2022-10-22T08:08:27.200Z,11.77
2022-10-22T08:10:59.387Z,11.77
2022-10-22T08:13:27.607Z,11.76
2022-10-22T08:15:57.422Z,11.75
2022-10-22T08:18:25.715Z,11.73
2022-10-22T08:20:52.854Z,11.74
2022-10-22T08:23:24.413Z,11.78
2022-10-22T08:25:54.617Z,11.78
2022-10-22T08:28:22.382Z,11.78
2022-10-22T08:30:49.846Z,11.78
2022-10-22T08:33:17.039Z,11.83
2022-10-22T08:35:49.891Z,11.86
2022-10-22T08:38:16.981Z,11.87
2022-10-22T08:40:52.256Z,11.86
2022-10-22T08:43:26.090Z,11.90
2022-10-22T08:46:31.816Z,11.89
2022-10-22T08:49:03.162Z,11.95
2022-10-22T08:51:35.861Z,11.98
2022-10-22T08:54:22.676Z,11.98
2022-10-22T08:57:09.080Z,11.95
2022-10-22T08:59:39.393Z,11.97
2022-10-22T09:02:24.883Z,12.00
2022-10-22T09:05:16.092Z,12.06
2022-10-22T09:07:48.689Z,12.13
2022-10-22T09:10:24.624Z,12.16
2022-10-22T09:12:51.760Z,12.18
2022-10-22T09:15:19.799Z,12.20
2022-10-22T09:18:06.443Z,12.22
2022-10-22T09:21:56.148Z,12.25
2022-10-22T09:24:45.001Z,12.30
2022-10-22T09:27:32.323Z,12.37
2022-10-22T09:30:01.803Z,12.43
2022-10-22T09:32:29.258Z,12.46
2022-10-22T09:34:58.377Z,12.52
2022-10-22T09:37:30.040Z,12.54
2022-10-22T09:40:04.020Z,12.60
2022-10-22T09:42:33.783Z,12.65
2022-10-22T09:45:00.924Z,12.73
2022-10-22T09:48:01.204Z,12.77
2022-10-22T09:50:50.507Z,12.86
2022-10-22T09:53:51.916Z,12.95
2022-10-22T09:56:29.041Z,13.07
2022-10-22T09:58:58.036Z,13.14
2022-10-22T10:01:32.658Z,13.21
2022-10-22T10:04:09.861Z,13.30
2022-10-22T10:06:40.596Z,13.37
2022-10-22T10:09:22.342Z,13.46
2022-10-22T10:12:25.372Z,13.54
2022-10-22T10:15:17.314Z,13.58
2022-10-22T10:18:46.178Z,13.66
2022-10-22T10:22:20.478Z,13.72
2022-10-22T10:25:12.078Z,13.79
2022-10-22T10:29:03.177Z,13.85
2022-10-22T10:31:50.175Z,13.91
2022-10-22T10:34:50.952Z,13.96
2022-10-22T10:37:34.234Z,14.03
2022-10-22T10:41:10.602Z,14.04
2022-10-22T10:44:16.526Z,14.07
2022-10-22T10:46:57.774Z,14.09
2022-10-22T10:49:31.423Z,14.12
2022-10-22T10:52:41.478Z,14.15
2022-10-22T10:55:30.787Z,14.23
2022-10-22T10:58:21.169Z,14.28
2022-10-22T11:01:08.759Z,14.31
2022-10-22T11:03:44.719Z,14.35
2022-10-22T11:06:23.095Z,14.41
2022-10-22T11:09:07.637Z,14.46
2022-10-22T11:12:02.802Z,14.51
2022-10-22T11:14:41.156Z,14.61
2022-10-22T11:17:41.184Z,14.69
2022-10-22T11:20:21.299Z,14.80
2022-10-22T11:23:18.065Z,14.90
2022-10-22T11:25:50.160Z,15.02
2022-10-22T11:28:33.750Z,15.14
2022-10-22T11:31:10.692Z,15.25
2022-10-22T11:34:35.319Z,15.35
2022-10-22T11:37:06.224Z,15.43
2022-10-22T11:39:55.353Z,15.51
2022-10-22T11:42:40.146Z,15.55
2022-10-22T11:45:34.612Z,15.60
2022-10-22T11:48:10.281Z,15.62
2022-10-22T11:51:00.212Z,15.67
2022-10-22T11:53:39.299Z,15.72
2022-10-22T11:56:13.163Z,15.76
2022-10-22T11:58:43.974Z,15.77
2022-10-22T12:01:11.161Z,15.74
2022-10-22T12:03:57.666Z,15.77
2022-10-22T12:06:28.288Z,15.81
2022-10-22T12:09:07.299Z,15.87
2022-10-22T12:11:49.346Z,15.88
2022-10-22T12:14:26.546Z,15.94
2022-10-22T12:16:59.266Z,15.95
2022-10-22T12:19:42.068Z,15.99
2022-10-22T12:22:34.018Z,16.00
2022-10-22T12:25:09.599Z,16.08
2022-10-22T12:27:40.972Z,16.19
2022-10-22T12:30:37.516Z,16.25
2022-10-22T12:33:08.373Z,16.29
2022-10-22T12:35:44.558Z,16.32
2022-10-22T12:38:22.806Z,16.35
2022-10-22T12:40:54.146Z,16.36
2022-10-22T12:43:28.973Z,16.36
2022-10-22T12:45:57.811Z,16.38
2022-10-22T12:48:33.729Z,16.42
2022-10-22T12:51:03.945Z,16.43
2022-10-22T12:53:37.885Z,16.44
2022-10-22T12:56:12.248Z,16.44
2022-10-22T12:58:42.397Z,16.43
2022-10-22T13:01:17.151Z,16.41
2022-10-22T13:03:47.768Z,16.40
2022-10-22T13:06:20.911Z,16.41
2022-10-22T13:09:00.752Z,16.42
2022-10-22T13:11:43.243Z,16.44
2022-10-22T13:14:28.034Z,16.48
2022-10-22T13:17:19.303Z,16.57
2022-10-22T13:20:26.499Z,16.65
2022-10-22T13:23:03.424Z,16.67
2022-10-22T13:25:34.757Z,16.67
2022-10-22T13:28:13.785Z,16.68
2022-10-22T13:31:24.028Z,16.72
2022-10-22T13:33:56.350Z,16.75
2022-10-22T13:36:24.644Z,16.78
2022-10-22T13:38:52.196Z,16.80
2022-10-22T13:41:27.747Z,16.84
2022-10-22T13:43:55.450Z,16.89
2022-10-22T13:46:24.622Z,16.98
2022-10-22T13:48:55.234Z,17.04
2022-10-22T13:51:37.482Z,17.07
2022-10-22T13:54:14.739Z,17.09
2022-10-22T13:56:41.864Z,17.09
2022-10-22T13:59:10.485Z,17.05
2022-10-22T14:01:38.671Z,17.04
2022-10-22T14:04:10.859Z,17.02
2022-10-22T14:06:38.044Z,17.05
2022-10-22T14:09:13.660Z,17.03
2022-10-22T14:11:40.856Z,17.01
2022-10-22T14:14:09.257Z,17.01
2022-10-22T14:16:37.765Z,17.02
2022-10-22T14:19:09.572Z,17.03
2022-10-22T14:21:38.060Z,17.04
2022-10-22T14:24:07.249Z,17.04
2022-10-22T14:26:36.971Z,17.06
2022-10-22T14:29:09.324Z,17.06
2022-10-22T14:31:41.603Z,17.06
2022-10-22T14:34:13.923Z,17.06
2022-10-22T14:36:44.476Z,17.09
2022-10-22T14:39:12.801Z,17.09
2022-10-22T14:41:41.193Z,17.08
2022-10-22T14:44:14.477Z,17.06
2022-10-22T14:46:44.037Z,17.05
2022-10-22T14:49:11.095Z,17.04
2022-10-22T14:51:38.271Z,17.06
2022-10-22T14:54:05.213Z,17.10
2022-10-22T14:56:32.297Z,17.10
2022-10-22T14:58:59.328Z,17.09
2022-10-22T15:01:26.448Z,17.07
2022-10-22T15:03:53.360Z,17.06
2022-10-22T15:06:20.385Z,17.03
2022-10-22T15:08:47.293Z,16.99
2022-10-22T15:11:14.482Z,16.95
2022-10-22T15:13:42.202Z,16.90
2022-10-22T15:16:11.578Z,16.86
2022-10-22T15:18:38.471Z,16.82
2022-10-22T15:21:19.206Z,16.78
2022-10-22T15:23:46.696Z,16.73
2022-10-22T15:26:14.481Z,16.70
2022-10-22T15:28:42.748Z,16.69
2022-10-22T15:31:14.430Z,16.69
2022-10-22T15:33:43.121Z,16.69
2022-10-22T15:36:14.842Z,16.69
2022-10-22T15:38:46.000Z,16.66
2022-10-22T15:41:13.627Z,16.64
2022-10-22T15:44:01.985Z,16.62
2022-10-22T15:46:34.509Z,16.58
2022-10-22T15:49:02.537Z,16.57
2022-10-22T15:51:29.586Z,16.55
2022-10-22T15:53:59.363Z,16.52
2022-10-22T15:56:29.528Z,16.49
2022-10-22T15:59:00.960Z,16.45
2022-10-22T16:01:28.428Z,16.41
2022-10-22T16:04:02.674Z,16.38
2022-10-22T16:06:41.200Z,16.35
2022-10-22T16:09:12.074Z,16.32
2022-10-22T16:11:40.960Z,16.29
2022-10-22T16:14:08.149Z,16.27
2022-10-22T16:16:39.905Z,16.23
2022-10-22T16:19:07.459Z,16.19
2022-10-22T16:21:34.492Z,16.16
2022-10-22T16:24:06.099Z,16.12
2022-10-22T16:26:34.662Z,16.09
2022-10-22T16:29:02.265Z,16.06
2022-10-22T16:31:29.310Z,16.04
2022-10-22T16:33:57.234Z,16.02
2022-10-22T16:36:24.675Z,16.01
2022-10-22T16:38:51.522Z,16.02
2022-10-22T16:41:23.030Z,16.03
2022-10-22T16:43:55.314Z,16.04
2022-10-22T16:46:23.542Z,16.05
2022-10-22T16:48:52.971Z,16.07
2022-10-22T16:51:24.090Z,16.08
2022-10-22T16:53:52.998Z,16.07
2022-10-22T16:56:20.557Z,16.08
2022-10-22T16:58:54.810Z,16.08
2022-10-22T17:01:29.254Z,16.10
2022-10-22T17:04:00.209Z,16.09
2022-10-22T17:06:27.930Z,16.09
2022-10-22T17:08:55.208Z,16.07
2022-10-22T17:11:24.964Z,16.05
2022-10-22T17:13:54.484Z,16.02
2022-10-22T17:16:24.733Z,15.99
2022-10-22T17:18:54.255Z,15.96
2022-10-22T17:21:22.331Z,15.94
2022-10-22T17:23:56.545Z,15.90
2022-10-22T17:26:26.555Z,15.89
2022-10-22T17:28:54.743Z,15.85
2022-10-22T17:31:32.883Z,15.83
2022-10-22T17:34:02.509Z,15.80
2022-10-22T17:36:34.855Z,15.76
2022-10-22T17:39:07.581Z,15.75
2022-10-22T17:41:37.068Z,15.72
2022-10-22T17:44:09.297Z,15.69
2022-10-22T17:46:38.367Z,15.65
2022-10-22T17:49:15.109Z,15.63
2022-10-22T17:51:42.230Z,15.58
2022-10-22T17:54:10.216Z,15.57
2022-10-22T17:56:40.209Z,15.54
2022-10-22T17:59:09.905Z,15.52
2022-10-22T18:01:40.293Z,15.48
2022-10-22T18:04:08.726Z,15.44
2022-10-22T18:06:36.517Z,15.41
2022-10-22T18:09:10.707Z,15.37
2022-10-22T18:11:39.795Z,15.36
2022-10-22T18:14:06.855Z,15.34
2022-10-22T18:16:35.036Z,15.32
2022-10-22T18:19:02.088Z,15.30
2022-10-22T18:21:31.583Z,15.30
2022-10-22T18:23:59.907Z,15.28
2022-10-22T18:26:27.431Z,15.25
2022-10-22T18:28:56.903Z,15.23
2022-10-22T18:31:28.845Z,15.24
2022-10-22T18:33:56.953Z,15.22
2022-10-22T18:36:28.256Z,15.21
2022-10-22T18:39:00.041Z,15.18
2022-10-22T18:41:30.282Z,15.16
2022-10-22T18:44:01.807Z,15.15
2022-10-22T18:46:31.567Z,15.12
2022-10-22T18:48:59.369Z,15.07
2022-10-22T18:51:33.098Z,15.04
2022-10-22T18:54:21.812Z,15.01
2022-10-22T18:56:49.826Z,14.97
2022-10-22T18:59:23.237Z,14.94
2022-10-22T19:01:54.180Z,14.94
2022-10-22T19:04:21.927Z,14.92
2022-10-22T19:06:49.373Z,14.93
2022-10-22T19:09:17.571Z,14.91
2022-10-22T19:11:46.384Z,14.90
2022-10-22T19:14:15.855Z,14.88
2022-10-22T19:16:42.920Z,14.88
2022-10-22T19:19:15.135Z,14.87
2022-10-22T19:21:42.729Z,14.87
2022-10-22T19:24:14.669Z,14.86
2022-10-22T19:26:42.364Z,14.87
2022-10-22T19:29:11.054Z,14.86
2022-10-22T19:31:40.985Z,14.85
2022-10-22T19:34:09.955Z,14.83
2022-10-22T19:36:37.018Z,14.80
2022-10-22T19:39:05.388Z,14.76
2022-10-22T19:41:34.005Z,14.73
2022-10-22T19:44:02.013Z,14.68
2022-10-22T19:46:32.676Z,14.67
2022-10-22T19:49:02.618Z,14.64
2022-10-22T19:51:35.741Z,14.61
2022-10-22T19:54:07.769Z,14.59
2022-10-22T19:56:37.746Z,14.59
2022-10-22T19:59:09.318Z,14.59
2022-10-22T20:01:37.575Z,14.59
2022-10-22T20:04:04.731Z,14.58
2022-10-22T20:06:31.916Z,14.57
2022-10-22T20:08:59.317Z,14.58
2022-10-22T20:11:30.693Z,14.57
2022-10-22T20:14:05.355Z,14.58
2022-10-22T20:16:36.153Z,14.56
2022-10-22T20:24:25.669Z,14.53
2022-10-22T20:26:52.740Z,14.54
2022-10-22T20:29:20.090Z,14.53
2022-10-22T20:31:48.317Z,14.51
2022-10-22T20:34:15.740Z,14.51
2022-10-22T20:36:42.928Z,14.50
2022-10-22T20:39:15.433Z,14.49
2022-10-22T20:41:42.800Z,14.47
2022-10-22T20:45:05.071Z,14.48
2022-10-22T20:47:44.384Z,14.47
2022-10-22T20:50:21.298Z,14.45
2022-10-22T20:52:48.434Z,14.44
2022-10-22T20:57:43.891Z,14.41
2022-10-22T21:00:11.945Z,14.39
2022-10-22T21:02:39.165Z,14.38
2022-10-22T21:05:06.750Z,14.38
2022-10-22T21:07:33.795Z,14.37
2022-10-22T21:10:00.660Z,14.34
2022-10-22T21:12:27.740Z,14.33
2022-10-22T21:14:54.679Z,14.33
2022-10-22T21:17:21.681Z,14.31
2022-10-22T21:19:48.521Z,14.29
2022-10-22T21:22:15.479Z,14.27
2022-10-22T21:24:42.302Z,14.26
2022-10-22T21:27:09.448Z,14.25
2022-10-22T21:29:36.496Z,14.26
2022-10-22T21:32:03.635Z,14.28
2022-10-22T21:34:33.258Z,14.27
2022-10-22T21:37:02.316Z,14.29
2022-10-22T21:39:29.305Z,14.29
2022-10-22T21:41:56.345Z,14.31
2022-10-22T21:44:23.240Z,14.34
2022-10-22T21:46:50.382Z,14.35
2022-10-22T21:49:17.258Z,14.37
2022-10-22T21:51:44.626Z,14.38
2022-10-22T21:54:12.764Z,14.39
2022-10-22T21:56:41.295Z,14.37
2022-10-22T21:59:08.899Z,14.37
2022-10-22T22:01:36.293Z,14.35
2022-10-22T22:04:03.370Z,14.32
2022-10-22T22:06:33.321Z,14.28
2022-10-22T22:09:02.512Z,14.26
2022-10-22T22:11:30.903Z,14.25
2022-10-22T22:13:59.094Z,14.23
2022-10-22T22:16:31.130Z,14.19
2022-10-22T22:19:08.562Z,14.14
2022-10-22T22:21:41.096Z,14.10
2022-10-22T22:24:11.566Z,14.05
2022-10-22T22:26:39.932Z,14.00
2022-10-22T22:29:06.869Z,13.97
2022-10-22T22:31:37.372Z,13.93
2022-10-22T22:34:12.764Z,13.90
2022-10-22T22:36:43.723Z,13.88
2022-10-22T22:39:20.097Z,13.84
2022-10-22T22:41:47.578Z,13.84
2022-10-22T22:44:15.235Z,13.84
2022-10-22T22:46:42.894Z,13.84
2022-10-22T22:49:10.160Z,13.86
2022-10-22T22:51:37.138Z,13.87
2022-10-22T22:54:04.154Z,13.87
2022-10-22T22:56:34.310Z,13.86
2022-10-22T22:59:01.960Z,13.86
2022-10-22T23:01:36.240Z,13.87
2022-10-22T23:04:12.628Z,13.86
2022-10-22T23:06:39.893Z,13.88
2022-10-22T23:09:10.179Z,13.84
2022-10-22T23:11:38.629Z,13.82
2022-10-22T23:14:08.342Z,13.83
2022-10-22T23:16:38.016Z,13.80
2022-10-22T23:19:06.203Z,13.82
2022-10-22T23:21:39.045Z,13.83
2022-10-22T23:24:14.121Z,13.83
2022-10-22T23:26:46.858Z,13.85
2022-10-22T23:29:18.029Z,13.87
2022-10-22T23:31:46.580Z,13.86
2022-10-22T23:36:50.927Z,13.87
2022-10-22T23:39:21.938Z,13.87
2022-10-22T23:41:49.075Z,13.82
2022-10-22T23:44:16.260Z,13.79
2022-10-22T23:46:43.412Z,13.80
2022-10-22T23:49:11.806Z,13.78
2022-10-22T23:51:40.582Z,13.78
2022-10-22T23:54:12.688Z,13.76
2022-10-22T23:56:39.761Z,13.74
2022-10-22T23:59:08.067Z,13.72
